Time;durP1;ratioP1;P1;durP2;ratioP2;P2;SDS_P1;SDS_P2;PMS_P1;PMS_P2;Temp;Humidity;BMP_temperature;BMP_pressure;BME280_temperature;BME280_humidity;BME280_pressure;Samples;Min_cycle;Max_cycle;Signal;HPM_P1;HPM_P2
2021/10/26 00:00:42;;;;;;;;;;;;;;;;;;;;;
2021/10/26 00:03:24;;;;;;;1.35;1.10;;;;;;;12.67;100.00;60892.56;4863981;28;20359;-88
2021/10/26 00:06:06;;;;;;;2.28;1.23;;;;;;;-145.06;100.00;60892.56;4869229;28;20029;-89
2021/10/26 00:08:56;;;;;;;1.38;1.05;;;;;;;12.96;100.00;60892.56;4874037;28;20033;-88
2021/10/26 00:11:35;;;;;;;1.58;0.93;;;;;;;-145.06;100.00;60892.56;4862481;28;20034;-88
2021/10/26 00:14:14;;;;;;;1.17;1.00;;;;;;;12.67;100.00;60892.56;4865441;28;20463;-87
2021/10/26 00:16:55;;;;;;;1.83;0.75;;;;;;;12.68;100.00;60892.56;4867173;28;20021;-88
2021/10/26 00:19:38;;;;;;;1.30;1.00;;;;;;;187.52;100.00;60892.56;4870338;28;20048;-89
2021/10/26 00:22:26;;;;;;;1.25;1.02;;;;;;;12.70;100.00;60892.56;4866617;28;20028;-88
2021/10/26 00:25:05;;;;;;;1.38;0.90;;;;;;;13.28;100.00;60892.56;4869648;28;20029;-88
2021/10/26 00:27:53;;;;;;;1.70;1.17;;;;;;;-145.06;100.00;60892.56;4870850;28;20029;-88
2021/10/26 00:30:59;;;;;;;1.65;1.10;;;;;;;-145.06;100.00;60892.56;4871032;28;20545;-89
2021/10/26 00:33:55;;;;;;;1.20;1.00;;;;;;;12.70;100.00;60892.56;4871708;28;20038;-88
2021/10/26 00:36:40;;;;;;;2.47;1.38;;;;;;;12.70;100.00;60892.56;4887898;28;20025;-89
2021/10/26 00:39:20;;;;;;;2.08;1.38;;;;;;;187.52;100.00;60892.56;4872572;28;20502;-88
2021/10/26 00:42:07;;;;;;;2.13;1.37;;;;;;;-145.06;100.00;60892.56;4864229;28;20022;-89
2021/10/26 00:44:49;;;;;;;1.65;1.30;;;;;;;-145.06;100.00;60892.56;4870857;28;20366;-88
2021/10/26 00:47:28;;;;;;;1.75;1.20;;;;;;;-145.06;100.00;60892.56;4867665;28;20025;-89
2021/10/26 00:50:30;;;;;;;;;;;;;;;;;;;;;
2021/10/26 00:53:21;;;;;;;2.92;0.98;;;;;;;-145.06;100.00;60892.56;4864698;28;20069;-88
2021/10/26 00:56:30;;;;;;;1.33;0.90;;;;;;;-145.06;100.00;60892.56;4864814;28;20116;-89
2021/10/26 00:59:10;;;;;;;1.40;1.02;;;;;;;12.64;100.00;60892.56;4870326;28;20033;-88
2021/10/26 01:01:49;;;;;;;1.95;1.25;;;;;;;-145.06;100.00;60892.56;4866097;28;20025;-89
2021/10/26 01:04:28;;;;;;;1.27;1.03;;;;;;;-145.06;100.00;60892.56;4866587;28;20392;-89
2021/10/26 01:07:07;;;;;;;1.35;1.13;;;;;;;15.88;100.00;60892.56;4867114;28;20192;-89
2021/10/26 01:09:46;;;;;;;2.00;1.37;;;;;;;15.88;100.00;60892.56;4865614;28;20037;-89
2021/10/26 01:12:29;;;;;;;1.73;1.00;;;;;;;-145.06;100.00;60892.56;4860143;28;20467;-88
2021/10/26 01:15:11;;;;;;;2.55;1.20;;;;;;;-145.06;100.00;60892.56;4864580;28;20108;-89
2021/10/26 01:17:53;;;;;;;2.58;1.20;;;;;;;12.62;100.00;60892.56;4865491;28;20385;-88
2021/10/26 01:20:53;;;;;;;1.73;1.30;;;;;;;-145.06;100.00;60892.56;4864304;28;20033;-90
2021/10/26 01:23:32;;;;;;;;;;;;;;;-145.06;100.00;60892.56;4859484;28;20538;-89
2021/10/26 01:26:11;;;;;;;1.98;1.25;;;;;;;-145.06;100.00;60892.56;4869505;28;19920;-88
2021/10/26 01:28:59;;;;;;;2.80;1.33;;;;;;;-145.06;100.00;60892.56;4867229;28;20115;-88
2021/10/26 01:31:41;;;;;;;2.30;1.10;;;;;;;-145.06;100.00;60892.56;4869714;28;20068;-89
2021/10/26 01:34:23;;;;;;;1.30;0.98;;;;;;;-145.06;100.00;60892.56;4870557;28;20466;-89
2021/10/26 01:37:07;;;;;;;1.13;1.02;;;;;;;-145.06;100.00;60892.56;4867315;28;20037;-89
2021/10/26 01:39:50;;;;;;;1.75;1.30;;;;;;;-145.06;100.00;60892.56;4869587;28;20025;-89
2021/10/26 01:42:29;;;;;;;1.73;1.17;;;;;;;-145.06;100.00;60892.56;4869214;28;20466;-89
2021/10/26 01:45:09;;;;;;;2.58;1.52;;;;;;;12.49;100.00;60892.56;4872475;28;20029;-89
2021/10/26 01:47:48;;;;;;;3.15;1.35;;;;;;;12.51;100.00;60892.56;4868922;28;20475;-89
2021/10/26 01:50:27;;;;;;;2.90;1.43;;;;;;;12.46;100.00;81616.88;4865361;28;20037;-88
2021/10/26 01:53:06;;;;;;;2.35;1.50;;;;;;;12.48;100.00;80543.78;4863596;28;20260;-88
2021/10/26 01:55:45;;;;;;;2.55;1.50;;;;;;;187.52;100.00;60892.56;4867145;28;20056;-89
2021/10/26 01:58:24;;;;;;;2.90;1.50;;;;;;;13.28;100.00;60892.56;4871661;28;20061;-88
2021/10/26 02:01:03;;;;;;;2.00;1.20;;;;;;;-145.06;100.00;60892.56;4875596;28;20717;-90
2021/10/26 02:03:42;;;;;;;1.60;1.30;;;;;;;12.45;100.00;60892.56;4872588;28;20260;-88
2021/10/26 02:06:21;;;;;;;2.13;1.43;;;;;;;-145.06;100.00;60892.56;4882523;28;20467;-88
2021/10/26 02:09:01;;;;;;;1.80;1.35;;;;;;;-145.06;100.00;60892.56;4900645;28;20033;-89
2021/10/26 02:11:40;;;;;;;2.03;1.40;;;;;;;12.46;100.00;60892.56;4889307;28;20037;-89
2021/10/26 02:14:19;;;;;;;2.00;1.60;;;;;;;-145.06;100.00;60892.56;4873384;28;20470;-88
2021/10/26 02:16:59;;;;;;;1.93;1.40;;;;;;;-145.06;100.00;60892.56;4874133;28;20041;-89
2021/10/26 02:19:38;;;;;;;;;;;;;;;-145.06;100.00;60892.56;4869917;28;20115;-89
2021/10/26 02:22:18;;;;;;;;;;;;;;;-145.06;100.00;60892.56;4869513;28;20342;-90
2021/10/26 02:24:57;;;;;;;1.92;1.40;;;;;;;-145.06;100.00;60892.56;4869133;28;19916;-88
2021/10/26 02:27:36;;;;;;;3.63;1.97;;;;;;;-145.06;100.00;60892.56;4870861;28;20343;-89
2021/10/26 02:30:15;;;;;;;4.93;2.00;;;;;;;-145.06;100.00;60892.56;4870064;28;20112;-88
2021/10/26 02:32:54;;;;;;;4.93;2.17;;;;;;;12.45;100.00;60892.56;4872672;28;20025;-89
2021/10/26 02:35:33;;;;;;;2.55;1.63;;;;;;;-145.06;100.00;60892.56;4870653;28;20041;-88
2021/10/26 02:38:12;;;;;;;2.80;1.88;;;;;;;-145.06;100.00;60892.56;4876785;28;20025;-89
2021/10/26 02:40:51;;;;;;;2.37;1.83;;;;;;;12.49;100.00;60892.56;4866714;28;20051;-89
2021/10/26 02:43:30;;;;;;;2.72;2.00;;;;;;;-145.06;100.00;60892.56;4869217;28;20827;-89
2021/10/26 02:46:10;;;;;;;2.08;1.50;;;;;;;-145.06;100.00;60892.56;4868366;28;20138;-89
2021/10/26 02:48:49;;;;;;;3.42;1.80;;;;;;;187.52;100.00;60892.56;4865620;28;20485;-88
2021/10/26 02:51:28;;;;;;;2.43;1.83;;;;;;;-145.06;100.00;60892.56;4867735;28;20037;-89
2021/10/26 02:54:07;;;;;;;3.47;1.55;;;;;;;-145.06;100.00;60892.56;4865641;28;20033;-89
2021/10/26 02:56:46;;;;;;;3.37;1.90;;;;;;;15.88;100.00;60892.56;4868788;28;20028;-89
2021/10/26 02:59:25;;;;;;;2.42;1.35;;;;;;;-145.06;100.00;60892.56;4869089;28;20060;-88
2021/10/26 03:02:05;;;;;;;2.78;1.60;;;;;;;-145.06;100.00;60892.56;4871115;28;20029;-89
2021/10/26 03:04:44;;;;;;;;;;;;;;;-145.06;100.00;60892.56;4872797;28;20359;-88
2021/10/26 03:07:23;;;;;;;1.73;1.33;;;;;;;-145.06;100.00;60892.56;4870635;28;19999;-88
2021/10/26 03:10:02;;;;;;;2.80;1.77;;;;;;;-145.06;100.00;60892.56;4867612;28;20111;-89
2021/10/26 03:12:42;;;;;;;2.38;1.40;;;;;;;-145.06;100.00;60892.56;4870835;28;20033;-89
2021/10/26 03:15:21;;;;;;;2.85;1.60;;;;;;;12.63;100.00;60892.56;4870895;28;20235;-89
2021/10/26 03:18:00;;;;;;;2.47;1.50;;;;;;;-145.06;100.00;60892.56;4880529;28;20561;-88
2021/10/26 03:20:40;;;;;;;2.78;1.63;;;;;;;12.21;100.00;60892.56;4866515;28;20041;-89
2021/10/26 03:23:19;;;;;;;2.63;1.80;;;;;;;13.28;100.00;60892.56;4869392;28;20100;-89
2021/10/26 03:25:58;;;;;;;2.50;1.70;;;;;;;-145.06;100.00;60892.56;4873278;28;20359;-89
2021/10/26 03:28:37;;;;;;;1.88;1.40;;;;;;;12.13;100.00;60892.56;4864536;28;20268;-89
2021/10/26 03:31:16;;;;;;;1.90;1.60;;;;;;;-145.06;100.00;60892.56;4870622;28;20032;-88
2021/10/26 03:33:56;;;;;;;2.22;1.58;;;;;;;12.12;100.00;60892.56;4868692;28;20037;-89
2021/10/26 03:36:35;;;;;;;3.37;1.50;;;;;;;-145.06;100.00;60892.56;4902536;28;20036;-90
2021/10/26 03:39:14;;;;;;;2.30;1.33;;;;;;;-145.06;100.00;60892.56;4881183;28;20287;-88
2021/10/26 03:41:53;;;;;;;1.70;1.02;;;;;;;-145.06;100.00;60892.56;4867936;28;20044;-88
2021/10/26 03:44:32;;;;;;;1.63;1.10;;;;;;;-145.06;100.00;60892.56;4869638;28;20033;-89
2021/10/26 03:47:11;;;;;;;1.40;0.93;;;;;;;21.08;100.00;60892.56;4869937;28;20373;-89
2021/10/26 03:49:51;;;;;;;1.45;1.05;;;;;;;-145.06;100.00;60892.56;4866141;28;20024;-88
2021/10/26 03:52:30;;;;;;;1.30;0.95;;;;;;;-145.06;100.00;60892.56;4867841;28;20555;-88
2021/10/26 03:55:10;;;;;;;1.23;1.10;;;;;;;-145.06;100.00;60892.56;4867208;28;20103;-90
2021/10/26 03:57:50;;;;;;;1.40;0.82;;;;;;;-145.06;100.00;60892.56;4865802;28;20475;-89
2021/10/26 04:00:29;;;;;;;1.27;0.98;;;;;;;-145.06;100.00;60892.56;4866974;28;20037;-88
2021/10/26 04:03:08;;;;;;;1.83;1.17;;;;;;;11.97;100.00;60892.56;4868754;28;20104;-88
2021/10/26 04:05:59;;;;;;;1.73;1.00;;;;;;;-145.06;100.00;60892.56;4868186;28;20267;-89
2021/10/26 04:11:25;;;;;;;1.15;0.90;;;;;;;-145.06;100.00;60892.56;4866385;28;20025;-88
2021/10/26 04:14:04;;;;;;;2.13;1.10;;;;;;;-145.06;100.00;60892.56;4864367;28;20364;-88
2021/10/26 04:16:43;;;;;;;1.13;0.70;;;;;;;-145.06;100.00;60892.56;4869811;28;20032;-88
2021/10/26 04:19:22;;;;;;;0.90;0.83;;;;;;;11.98;100.00;60892.56;4869853;28;20060;-89
2021/10/26 04:22:01;;;;;;;1.20;0.90;;;;;;;-145.06;100.00;60892.56;4868597;28;20056;-88
2021/10/26 04:24:40;;;;;;;1.33;1.10;;;;;;;-145.06;100.00;60892.56;4866170;28;20738;-89
2021/10/26 04:27:20;;;;;;;1.87;1.20;;;;;;;11.89;100.00;60892.56;4865458;28;20567;-89
2021/10/26 04:29:59;;;;;;;;;;;;;;;-145.06;100.00;60892.56;4863344;28;20300;-89
2021/10/26 04:32:39;;;;;;;3.33;1.30;;;;;;;-145.06;100.00;60892.56;4868859;28;20290;-88
2021/10/26 04:35:18;;;;;;;1.85;1.23;;;;;;;11.88;100.00;60892.56;4868287;28;20467;-88
2021/10/26 04:37:58;;;;;;;1.63;1.10;;;;;;;-145.06;100.00;60892.56;4869378;28;20029;-89
2021/10/26 04:40:36;;;;;;;2.15;1.00;;;;;;;187.52;100.00;60892.56;4870009;28;20203;-89
2021/10/26 04:43:19;;;;;;;2.75;1.13;;;;;;;11.83;100.00;60892.56;4877646;28;20025;-89
2021/10/26 04:45:58;;;;;;;1.48;0.70;;;;;;;-145.06;100.00;60892.56;4877510;28;20044;-88
2021/10/26 04:48:37;;;;;;;1.92;0.82;;;;;;;15.88;100.00;60892.56;4865419;28;20037;-89
2021/10/26 04:51:16;;;;;;;2.10;0.97;;;;;;;11.98;100.00;60892.56;4869550;28;20033;-89
2021/10/26 04:53:55;;;;;;;1.10;0.80;;;;;;;-145.06;100.00;60892.56;4868640;28;20029;-88
2021/10/26 04:56:34;;;;;;;0.80;0.75;;;;;;;-145.06;100.00;60892.56;4866857;28;20362;-89
2021/10/26 04:59:13;;;;;;;1.50;1.00;;;;;;;-145.06;100.00;60892.56;4866047;28;20032;-88
2021/10/26 05:01:51;;;;;;;1.55;0.70;;;;;;;-145.06;100.00;60892.56;4869780;28;20056;-88
2021/10/26 05:04:30;;;;;;;2.00;0.90;;;;;;;11.90;100.00;60892.56;4876535;28;20033;-89
2021/10/26 05:07:11;;;;;;;1.70;0.90;;;;;;;-145.06;100.00;60892.56;4876378;28;20272;-88
2021/10/26 05:09:50;;;;;;;0.80;0.70;;;;;;;187.52;100.00;60892.56;4869256;28;20388;-89
2021/10/26 05:12:29;;;;;;;0.75;0.75;;;;;;;11.98;100.00;60892.56;4867435;28;20033;-88
2021/10/26 05:15:09;;;;;;;0.60;0.57;;;;;;;11.82;100.00;60892.56;4870981;28;20379;-88
2021/10/26 05:17:49;;;;;;;1.17;0.80;;;;;;;-145.06;100.00;60892.56;4870955;28;20025;-89
2021/10/26 05:20:29;;;;;;;1.60;0.70;;;;;;;-145.06;100.00;60892.56;4873323;28;20029;-89
2021/10/26 05:23:09;;;;;;;1.98;0.90;;;;;;;-145.06;100.00;60892.56;4865181;28;20017;-89
2021/10/26 05:25:51;;;;;;;1.13;0.82;;;;;;;-145.06;100.00;60892.56;4871676;28;20029;-88
2021/10/26 05:28:30;;;;;;;2.25;0.90;;;;;;;-145.06;100.00;60892.56;4864063;28;20025;-88
2021/10/26 05:31:09;;;;;;;2.70;0.98;;;;;;;11.88;100.00;60892.56;4870950;28;20560;-88
2021/10/26 05:33:48;;;;;;;0.73;0.70;;;;;;;11.98;100.00;60892.56;4860850;28;20431;-88
2021/10/26 05:36:27;;;;;;;1.48;0.80;;;;;;;15.88;100.00;60892.56;4869779;28;20283;-88
2021/10/26 05:39:07;;;;;;;0.70;0.60;;;;;;;-145.06;100.00;60892.56;4875046;28;20053;-88
2021/10/26 05:41:47;;;;;;;2.05;0.75;;;;;;;15.88;100.00;60892.56;4864141;28;20025;-89
2021/10/26 05:44:26;;;;;;;0.75;0.60;;;;;;;-145.06;100.00;60892.56;4868513;28;20048;-89
2021/10/26 05:47:05;;;;;;;1.00;0.60;;;;;;;-145.06;100.00;60892.56;4870571;28;20119;-88
2021/10/26 05:49:44;;;;;;;0.70;0.50;;;;;;;12.04;100.00;60892.56;4875674;28;20033;-88
2021/10/26 05:52:23;;;;;;;2.30;0.73;;;;;;;-145.06;100.00;60892.56;4867726;28;20363;-89
2021/10/26 05:55:04;;;;;;;0.95;0.70;;;;;;;-145.06;100.00;60892.56;4870447;28;20267;-88
2021/10/26 05:57:43;;;;;;;1.15;0.70;;;;;;;-145.06;100.00;60892.56;4871237;28;20041;-89
2021/10/26 06:00:25;;;;;;;0.83;0.60;;;;;;;-145.06;100.00;60892.56;4873325;28;20028;-88
2021/10/26 06:03:04;;;;;;;1.95;0.90;;;;;;;-145.06;100.00;60892.56;4871478;28;20279;-88
2021/10/26 06:05:44;;;;;;;0.50;0.50;;;;;;;-145.06;100.00;60892.56;4868424;28;20040;-89
2021/10/26 06:08:23;;;;;;;1.40;0.70;;;;;;;-145.06;100.00;60892.56;4872431;28;20037;-89
2021/10/26 06:11:07;;;;;;;1.08;0.77;;;;;;;-145.06;100.00;60892.56;4872540;28;20056;-89
2021/10/26 06:13:51;;;;;;;0.80;0.60;;;;;;;-145.06;100.00;60892.56;4863726;28;20495;-89
2021/10/26 06:16:32;;;;;;;0.80;0.80;;;;;;;-145.06;100.00;60892.56;4871945;28;20033;-89
2021/10/26 06:19:15;;;;;;;0.75;0.70;;;;;;;-145.06;100.00;60892.56;4870029;28;20028;-88
2021/10/26 06:21:54;;;;;;;1.02;0.60;;;;;;;187.52;100.00;60892.56;4864184;28;20925;-88
2021/10/26 06:24:46;;;;;;;0.60;0.57;;;;;;;-145.06;100.00;60892.56;4861421;28;20033;-88
2021/10/26 06:27:28;;;;;;;1.20;0.70;;;;;;;-145.06;100.00;60892.56;4878160;28;20088;-89
2021/10/26 06:30:16;;;;;;;0.70;0.50;;;;;;;-145.06;100.00;60892.56;4891368;28;20021;-88
2021/10/26 06:32:58;;;;;;;1.15;0.60;;;;;;;15.88;100.00;60892.56;4866148;28;20026;-88
2021/10/26 06:35:42;;;;;;;0.98;0.50;;;;;;;12.22;100.00;60892.56;4866321;28;20104;-89
2021/10/26 06:38:30;;;;;;;1.40;0.60;;;;;;;-145.06;100.00;60892.56;4869156;28;20021;-88
2021/10/26 06:41:10;;;;;;;1.55;0.73;;;;;;;-145.06;100.00;60892.56;4871843;28;20021;-89
2021/10/26 06:43:58;;;;;;;0.90;0.70;;;;;;;-145.06;100.00;60892.56;4870699;28;20228;-88
2021/10/26 06:46:37;;;;;;;0.70;0.60;;;;;;;12.27;100.00;60892.56;4873398;28;20029;-89
2021/10/26 06:49:16;;;;;;;2.10;0.60;;;;;;;-145.06;100.00;60892.56;4878322;28;20041;-88
2021/10/26 06:52:00;;;;;;;0.65;0.63;;;;;;;-145.06;100.00;60892.56;4868440;28;20692;-89
2021/10/26 06:54:43;;;;;;;1.38;0.50;;;;;;;-145.06;100.00;60892.56;4869799;28;20025;-88
2021/10/26 06:57:24;;;;;;;1.85;0.60;;;;;;;-145.06;100.00;60892.56;4872640;28;20024;-89
2021/10/26 07:00:05;;;;;;;1.00;0.57;;;;;;;13.28;100.00;60892.56;4858659;28;20034;-88
2021/10/26 07:02:50;;;;;;;0.50;0.40;;;;;;;12.47;100.00;60892.56;4865880;28;20068;-88
2021/10/26 07:05:29;;;;;;;0.50;0.50;;;;;;;-145.06;100.00;60892.56;4869619;28;20029;-88
2021/10/26 07:08:08;;;;;;;1.00;0.43;;;;;;;-145.06;100.00;60892.56;4870679;28;20025;-89
2021/10/26 07:10:48;;;;;;;1.63;0.63;;;;;;;-145.06;100.00;60892.56;4870914;28;20041;-88
2021/10/26 07:13:28;;;;;;;0.40;0.40;;;;;;;-145.06;100.00;60892.56;4870853;28;20359;-90
2021/10/26 07:16:08;;;;;;;0.57;0.40;;;;;;;12.47;100.00;60892.56;4865086;28;20060;-88
2021/10/26 07:18:47;;;;;;;1.88;0.52;;;;;;;-145.06;100.00;60892.56;4871407;28;20048;-88
2021/10/26 07:21:26;;;;;;;1.30;0.60;;;;;;;-145.06;100.00;60892.56;4868569;28;20064;-89
2021/10/26 07:24:05;;;;;;;1.23;0.50;;;;;;;-145.06;100.00;60892.56;4868334;28;20041;-89
2021/10/26 07:26:44;;;;;;;1.15;0.65;;;;;;;12.44;100.00;60892.56;4865245;28;20044;-89
2021/10/26 07:29:23;;;;;;;1.23;0.60;;;;;;;12.40;100.00;60892.56;4861859;28;20041;-88
2021/10/26 07:32:02;;;;;;;0.73;0.60;;;;;;;12.39;100.00;60892.56;4869684;28;20275;-89
2021/10/26 07:34:41;;;;;;;1.00;0.50;;;;;;;12.38;100.00;60892.56;4872608;28;20033;-89
2021/10/26 07:37:24;;;;;;;1.77;0.50;;;;;;;-145.06;100.00;60892.56;4866483;28;20037;-89
2021/10/26 07:40:04;;;;;;;0.93;0.50;;;;;;;-145.06;100.00;60892.56;4870501;28;20025;-89
2021/10/26 07:42:43;;;;;;;;;;;;;;;-145.06;100.00;60892.56;4868699;28;20025;-89
2021/10/26 07:45:22;;;;;;;3.53;0.90;;;;;;;-145.06;100.00;60892.56;4866739;28;20365;-88
2021/10/26 07:48:01;;;;;;;0.75;0.60;;;;;;;-145.06;100.00;60892.56;4864342;28;20267;-89
2021/10/26 07:50:40;;;;;;;2.30;0.70;;;;;;;-145.06;100.00;60892.56;4868934;28;20041;-89
2021/10/26 07:53:19;;;;;;;1.07;0.87;;;;;;;-145.06;100.00;60892.56;4873464;28;20288;-89
2021/10/26 07:56:01;;;;;;;1.20;0.70;;;;;;;-145.06;100.00;60892.56;4880836;28;20005;-89
2021/10/26 07:58:41;;;;;;;4.88;0.82;;;;;;;12.53;100.00;60892.56;4862199;28;20040;-88
2021/10/26 08:01:20;;;;;;;2.40;0.82;;;;;;;-145.06;100.00;60892.56;4859941;28;20451;-89
2021/10/26 08:03:59;;;;;;;1.80;0.80;;;;;;;12.59;100.00;60892.56;4859165;28;20605;-88
2021/10/26 08:06:41;;;;;;;1.45;0.85;;;;;;;-145.06;100.00;60892.56;4859996;28;20040;-88
2021/10/26 08:09:20;;;;;;;2.80;1.02;;;;;;;-145.06;100.00;60892.56;4865223;28;20478;-89
2021/10/26 08:11:59;;;;;;;1.90;0.95;;;;;;;-145.06;100.00;60892.56;4862407;28;20025;-88
2021/10/26 08:14:40;;;;;;;3.90;1.27;;;;;;;-145.06;100.00;60892.56;4860495;28;20041;-88
2021/10/26 08:17:19;;;;;;;2.88;1.17;;;;;;;12.65;100.00;60892.56;4862916;28;20045;-89
2021/10/26 08:19:58;;;;;;;2.77;1.30;;;;;;;-145.06;100.00;60892.56;4865460;28;20064;-89
2021/10/26 08:22:39;;;;;;;2.30;1.38;;;;;;;-145.06;100.00;60892.56;4864468;28;20407;-88
2021/10/26 08:25:22;;;;;;;2.55;1.00;;;;;;;-145.06;100.00;60892.56;4865310;28;20049;-88
2021/10/26 08:28:01;;;;;;;1.40;1.02;;;;;;;13.28;100.00;60892.56;4861206;28;20033;-89
2021/10/26 08:33:36;;;;;;;1.65;1.05;;;;;;;-145.06;100.00;60892.56;4861470;28;20487;-89
2021/10/26 08:36:15;;;;;;;2.05;1.02;;;;;;;12.86;100.00;60892.56;4864821;28;20367;-88
2021/10/26 08:38:54;;;;;;;1.63;1.00;;;;;;;-145.06;100.00;60892.56;4863939;28;20307;-88
2021/10/26 08:41:35;;;;;;;2.67;1.30;;;;;;;-145.06;100.00;60892.56;4863014;28;20032;-88
2021/10/26 08:44:18;;;;;;;1.92;1.20;;;;;;;-145.06;100.00;60892.56;4862470;28;20056;-89
2021/10/26 08:46:58;;;;;;;1.08;0.80;;;;;;;13.05;100.00;60892.56;4859252;28;20485;-88
2021/10/26 08:49:37;;;;;;;2.15;1.00;;;;;;;-145.06;100.00;60892.56;4857673;28;20061;-88
2021/10/26 08:52:16;;;;;;;2.22;0.75;;;;;;;-145.06;100.00;60892.56;4863493;28;20359;-88
2021/10/26 08:54:56;;;;;;;1.27;0.80;;;;;;;13.12;100.00;60892.56;4864946;28;21574;-88
2021/10/26 08:57:36;;;;;;;1.40;0.82;;;;;;;13.25;100.00;60892.56;4866770;28;20352;-88
2021/10/26 09:00:17;;;;;;;2.67;0.95;;;;;;;-145.06;100.00;60892.56;4866473;28;20348;-89
2021/10/26 09:02:56;;;;;;;1.85;0.90;;;;;;;13.33;100.00;60892.56;4870445;28;20040;-89
2021/10/26 09:05:35;;;;;;;1.45;0.80;;;;;;;-145.06;100.00;60892.56;4875054;28;20036;-89
2021/10/26 09:08:18;;;;;;;3.75;1.00;;;;;;;-145.06;100.00;60892.56;4874809;28;20033;-89
2021/10/26 09:11:18;;;;;;;2.20;0.90;;;;;;;-145.06;100.00;60892.56;4869928;28;20032;-87
2021/10/26 09:16:56;;;;;;;2.05;0.90;;;;;;;13.71;100.00;60892.56;4871929;28;20406;-89
2021/10/26 09:19:40;;;;;;;1.63;0.60;;;;;;;-145.06;100.00;60892.56;4872749;28;20197;-89
2021/10/26 09:22:19;;;;;;;2.67;0.65;;;;;;;-145.06;100.00;60892.56;4892844;28;20077;-89
2021/10/26 09:25:06;;;;;;;2.15;0.90;;;;;;;-145.06;100.00;60892.56;4888328;28;20029;-87
2021/10/26 09:27:45;;;;;;;1.55;0.93;;;;;;;14.05;100.00;60892.56;4872708;28;20132;-88
2021/10/26 09:30:24;;;;;;;1.38;0.77;;;;;;;14.13;100.00;60892.56;4872091;28;20013;-88
2021/10/26 09:33:03;;;;;;;1.08;0.70;;;;;;;-145.06;100.00;60892.56;4869714;28;20029;-89
2021/10/26 09:35:42;;;;;;;1.23;0.60;;;;;;;14.33;100.00;60892.56;4884190;28;20568;-88
2021/10/26 09:38:28;;;;;;;2.85;0.77;;;;;;;14.46;100.00;60892.56;4873015;28;20024;-89
2021/10/26 09:41:07;;;;;;;1.92;0.88;;;;;;;14.56;100.00;60892.56;4865570;28;20430;-87
2021/10/26 09:43:46;;;;;;;2.17;0.80;;;;;;;-145.06;100.00;60892.56;4871699;28;20024;-88
2021/10/26 09:46:25;;;;;;;1.55;0.80;;;;;;;-145.06;100.00;60892.56;4870281;28;20658;-89
2021/10/26 09:49:04;;;;;;;1.80;0.80;;;;;;;-145.06;100.00;60892.56;4869813;28;20033;-88
2021/10/26 09:51:43;;;;;;;2.83;0.95;;;;;;;14.82;100.00;60892.56;4872305;28;20129;-88
2021/10/26 09:54:21;;;;;;;1.75;0.75;;;;;;;-145.06;100.00;60892.56;4871226;28;20021;-88
2021/10/26 09:57:06;;;;;;;1.52;0.60;;;;;;;14.93;100.00;60892.56;4871483;28;20583;-89
2021/10/26 09:59:51;;;;;;;1.33;0.60;;;;;;;-145.06;100.00;60892.56;4872384;28;20033;-88
2021/10/26 10:02:31;;;;;;;0.85;0.40;;;;;;;15.17;100.00;60892.56;4867796;28;20032;-88
2021/10/26 10:05:24;;;;;;;2.35;0.60;;;;;;;-145.06;100.00;60892.56;4869692;28;20025;-89
2021/10/26 10:08:35;;;;;;;2.10;0.50;;;;;;;-145.06;100.00;60892.56;4868314;28;20037;-88
2021/10/26 10:11:17;;;;;;;3.55;0.70;;;;;;;187.52;100.00;60892.56;4870150;28;20462;-89
2021/10/26 10:13:56;;;;;;;1.85;0.60;;;;;;;-145.06;100.00;60892.56;4868072;28;20025;-88
2021/10/26 10:16:35;;;;;;;1.00;0.40;;;;;;;-145.06;100.00;60892.56;4865461;28;20033;-89
2021/10/26 10:19:15;;;;;;;1.55;0.60;;;;;;;-145.06;100.00;60892.56;4872513;28;20498;-88
2021/10/26 10:21:55;;;;;;;1.55;0.68;;;;;;;187.52;100.00;60892.56;4870056;28;20072;-88
2021/10/26 10:24:39;;;;;;;1.15;0.52;;;;;;;-145.06;100.00;60892.56;4871225;28;20461;-89
2021/10/26 10:27:19;;;;;;;1.35;0.60;;;;;;;-145.06;100.00;60892.56;4873594;28;20367;-88
2021/10/26 10:29:59;;;;;;;1.60;0.80;;;;;;;-145.06;100.00;60892.56;4868783;28;20032;-89
2021/10/26 10:32:40;;;;;;;1.33;0.70;;;;;;;16.05;100.00;60892.56;4870471;28;20033;-88
2021/10/26 10:35:19;;;;;;;1.27;0.60;;;;;;;16.12;100.00;60892.56;4872688;28;20236;-88
2021/10/26 10:38:01;;;;;;;1.35;0.55;;;;;;;16.24;100.00;60892.56;4871275;28;20107;-89
2021/10/26 10:40:41;;;;;;;0.93;0.57;;;;;;;-145.06;100.00;60892.56;4871577;28;20100;-87
2021/10/26 10:43:47;;;;;;;1.15;0.50;;;;;;;-145.06;100.00;60892.56;4866023;28;20017;-89
2021/10/26 10:46:40;;;;;;;1.98;0.50;;;;;;;-145.06;100.00;60892.56;4867247;28;20036;-87
2021/10/26 10:49:22;;;;;;;1.98;0.65;;;;;;;-145.06;100.00;60892.56;4871489;28;20127;-88
2021/10/26 10:52:10;;;;;;;0.85;0.40;;;;;;;16.78;100.00;60892.56;4868693;28;20177;-89
2021/10/26 10:57:34;;;;;;;2.50;0.75;;;;;;;-145.06;100.00;60892.56;4880617;28;20024;-88
2021/10/26 11:00:28;;;;;;;1.00;0.70;;;;;;;16.92;100.00;60892.56;4883404;28;20029;-88
2021/10/26 11:03:30;;;;;;;1.38;0.88;;;;;;;16.93;100.00;60892.56;4879097;28;20356;-89
2021/10/26 11:06:12;;;;;;;2.30;0.73;;;;;;;16.98;100.00;60892.56;4870068;28;20033;-88
2021/10/26 11:08:52;;;;;;;1.67;0.68;;;;;;;-145.06;100.00;60892.56;4868829;28;20037;-89
2021/10/26 11:11:31;;;;;;;0.90;0.63;;;;;;;-145.06;100.00;60892.56;4869519;28;20040;-89
2021/10/26 11:14:17;;;;;;;2.60;0.80;;;;;;;17.16;100.00;60892.56;4869409;28;20280;-88
2021/10/26 11:16:55;;;;;;;0.73;0.52;;;;;;;-145.06;100.00;60892.56;4867837;28;20291;-88
2021/10/26 11:19:45;;;;;;;2.17;0.80;;;;;;;17.29;100.00;60892.56;4869640;28;20530;-88
2021/10/26 11:23:13;;;;;;;2.20;0.90;;;;;;;-145.06;100.00;60892.56;4865048;28;20021;-88
2021/10/26 11:25:58;;;;;;;1.80;0.70;;;;;;;17.32;100.00;60892.56;4883983;28;20016;-88
2021/10/26 11:28:46;;;;;;;1.30;0.73;;;;;;;-145.06;100.00;60892.56;4869133;28;20119;-88
2021/10/26 11:31:28;;;;;;;3.08;1.00;;;;;;;-145.06;100.00;60892.56;4867247;28;20029;-88
2021/10/26 11:34:16;;;;;;;1.40;0.70;;;;;;;-145.06;100.00;60892.56;4870948;28;20024;-88
2021/10/26 11:37:10;;;;;;;1.08;0.68;;;;;;;17.29;100.00;60892.56;4865797;28;20025;-88
2021/10/26 11:39:50;;;;;;;2.15;0.60;;;;;;;17.32;100.00;60892.56;4866868;28;20044;-88
2021/10/26 11:42:29;;;;;;;2.00;0.90;;;;;;;17.32;100.00;60892.56;4867967;28;20471;-88
2021/10/26 11:45:09;;;;;;;1.70;0.87;;;;;;;17.26;100.00;60892.56;4874433;28;20120;-88
2021/10/26 11:47:47;;;;;;;;;;;;;;;-145.06;100.00;60892.56;4865215;28;20267;-88
2021/10/26 11:50:26;;;;;;;1.10;0.57;;;;;;;-145.06;100.00;60892.56;4870273;28;19908;-88
2021/10/26 11:53:05;;;;;;;0.80;0.57;;;;;;;17.27;100.00;60892.56;4862922;28;20025;-88
2021/10/26 11:55:44;;;;;;;1.02;0.50;;;;;;;-145.06;100.00;60892.56;4868168;28;20041;-87
2021/10/26 11:58:26;;;;;;;0.77;0.50;;;;;;;-145.06;100.00;60892.56;4867803;28;20332;-89
2021/10/26 12:01:05;;;;;;;1.40;0.45;;;;;;;17.42;100.00;60892.56;4869950;28;20455;-88
2021/10/26 12:03:47;;;;;;;1.20;0.63;;;;;;;17.42;100.00;60892.56;4868062;28;20096;-88
2021/10/26 12:06:31;;;;;;;1.15;0.50;;;;;;;-145.06;100.00;60892.56;4873207;28;20036;-88
2021/10/26 12:09:12;;;;;;;1.20;0.47;;;;;;;17.48;100.00;60892.56;4868684;28;20021;-88
2021/10/26 12:11:54;;;;;;;3.53;0.85;;;;;;;17.55;100.00;60892.56;4863175;28;20352;-88
2021/10/26 12:14:35;;;;;;;1.17;0.70;;;;;;;17.56;100.00;60892.56;4867812;28;20359;-88
2021/10/26 12:17:17;;;;;;;1.08;0.32;;;;;;;18.48;100.00;60892.56;4864738;28;20053;-89
2021/10/26 12:22:58;;;;;;;1.13;0.40;;;;;;;-145.06;100.00;60892.56;4871279;28;20113;-89
2021/10/26 12:25:43;;;;;;;0.90;0.50;;;;;;;-145.06;100.00;60892.56;4866941;28;20470;-88
2021/10/26 12:28:23;;;;;;;0.65;0.40;;;;;;;17.91;100.00;60892.56;4870961;28;20459;-88
2021/10/26 12:31:05;;;;;;;1.77;0.40;;;;;;;-145.06;100.00;60892.56;4868664;28;20111;-89
2021/10/26 12:33:44;;;;;;;1.45;0.60;;;;;;;17.91;100.00;60892.56;4871229;28;20025;-88
2021/10/26 12:36:23;;;;;;;1.35;0.50;;;;;;;17.91;100.00;60892.56;4869849;28;20076;-89
2021/10/26 12:39:05;;;;;;;0.43;0.32;;;;;;;-145.06;100.00;60892.56;4867828;28;20029;-88